CWGZ

Grise Fiord Airport

Canada
METAR CWGZ 212000Z 18005KT 100V230 15SM FEW009 FEW016 SCT027 BKN075 M03/M06 A2998 RMK SF1ST2SC2AC3 SF TR -2.5/-6.9/TR/TRACE SNW CVR/ LAST STFD OB/NEXT 221200Z SLP158
Observed Flight Rules
Sep-21 @ 20:00 UTC (11 hours ago) Visual Flight Rules
Wind Visibility Clouds
180° at 5 knots 15 miles
Temperatures Readings
Current -3°C / 27°F
Dewpoint -6°C / 21°F
Humidity 80%
Altimeter 29.98" Hg
Pressure 1015.8 hPa
Elevation 45
METAR CWGZ 212000Z 18005KT 100V230 15SM FEW009 FEW016 SCT027 BKN075 M03/M06 A2998 RMK SF1ST2SC2AC3 SF TR -2.5/-6.9/TR/TRACE SNW CVR/ LAST STFD OB/NEXT 221200Z SLP158
Observed Flight Rules
Sep-21 @ 20:00 UTC
(11 hours ago)
VFR
Wind Visibility
180° at 5 knots 15 miles
Clouds
Temperature Dewpoint
-3°C / 27°F -6°C / 21°F
Humidity Altimeter Pressure
80% 29.98" Hg 1015.8 hPa